createdAt,value
2022-10-10T00:01:43.505Z,13.70
2022-10-10T00:04:12.358Z,13.70
2022-10-10T00:06:40.964Z,13.63
2022-10-10T00:09:09.880Z,14.20
2022-10-10T00:11:38.396Z,15.55
2022-10-10T00:14:08.836Z,14.10
2022-10-10T00:16:37.544Z,13.25
2022-10-10T00:19:06.325Z,14.40
2022-10-10T00:21:35.045Z,13.65
2022-10-10T00:24:03.780Z,13.70
2022-10-10T00:26:32.868Z,13.73
2022-10-10T00:29:01.418Z,13.35
2022-10-10T00:31:31.511Z,14.02
2022-10-10T00:33:59.991Z,13.02
2022-10-10T00:36:28.531Z,13.63
2022-10-10T00:38:57.388Z,12.82
2022-10-10T00:41:27.067Z,12.75
2022-10-10T00:44:07.937Z,12.95
2022-10-10T00:46:38.386Z,13.02
2022-10-10T00:49:10.806Z,13.27
2022-10-10T00:51:40.369Z,13.25
2022-10-10T00:54:11.373Z,12.75
2022-10-10T00:56:45.011Z,12.32
2022-10-10T00:59:13.863Z,11.68
2022-10-10T01:01:44.388Z,12.23
2022-10-10T01:04:34.728Z,10.95
2022-10-10T01:07:07.256Z,12.15
2022-10-10T01:09:38.069Z,11.45
2022-10-10T01:12:19.219Z,11.80
2022-10-10T01:14:52.819Z,11.68
2022-10-10T01:17:31.200Z,11.30
2022-10-10T01:20:32.965Z,11.52
2022-10-10T01:23:25.376Z,13.02
2022-10-10T01:26:05.813Z,11.00
2022-10-10T01:28:44.815Z,12.25
2022-10-10T01:31:17.014Z,11.35
2022-10-10T01:33:56.274Z,11.38
2022-10-10T01:36:32.730Z,11.88
2022-10-10T01:39:07.729Z,10.95
2022-10-10T01:41:42.626Z,11.85
2022-10-10T01:44:12.816Z,12.15
2022-10-10T01:46:43.490Z,10.45
2022-10-10T01:49:12.412Z,10.23
2022-10-10T01:51:59.033Z,11.23
2022-10-10T01:54:38.570Z,11.45
2022-10-10T01:57:20.654Z,11.80
2022-10-10T02:02:31.683Z,11.70
2022-10-10T02:05:05.900Z,11.40
2022-10-10T02:07:41.250Z,12.07
2022-10-10T02:10:11.596Z,11.57
2022-10-10T02:12:41.755Z,11.18
2022-10-10T02:15:15.648Z,10.35
2022-10-10T02:17:48.994Z,10.05
2022-10-10T02:20:22.106Z,11.48
2022-10-10T02:22:52.160Z,9.93
2022-10-10T02:25:24.877Z,10.15
2022-10-10T02:28:05.222Z,9.98
2022-10-10T02:30:37.955Z,8.30
2022-10-10T02:33:08.778Z,7.70
2022-10-10T02:35:41.763Z,9.48
2022-10-10T02:38:13.510Z,7.72
2022-10-10T02:43:13.419Z,7.03
2022-10-10T02:45:44.079Z,6.53
2022-10-10T02:48:12.685Z,7.30
2022-10-10T02:50:41.286Z,6.57
2022-10-10T02:53:09.767Z,6.15
2022-10-10T02:55:38.751Z,6.28
2022-10-10T02:58:07.394Z,5.97
2022-10-10T03:00:36.077Z,5.95
2022-10-10T03:03:06.166Z,6.55
2022-10-10T03:05:34.629Z,5.82
2022-10-10T03:08:05.857Z,6.00
2022-10-10T03:10:36.597Z,6.10
2022-10-10T03:13:05.464Z,5.32
2022-10-10T03:15:33.993Z,5.85
2022-10-10T03:18:02.917Z,5.45
2022-10-10T03:20:32.787Z,6.20
2022-10-10T03:23:01.527Z,5.72
2022-10-10T03:25:30.193Z,6.30
2022-10-10T03:27:58.711Z,5.53
2022-10-10T03:30:27.329Z,5.03
2022-10-10T03:32:55.810Z,6.43
2022-10-10T03:35:24.707Z,5.30
2022-10-10T03:37:54.863Z,5.53
2022-10-10T03:40:23.754Z,5.28
2022-10-10T03:42:53.148Z,5.32
2022-10-10T03:45:23.029Z,4.82
2022-10-10T03:47:51.664Z,4.95
2022-10-10T03:50:20.397Z,5.45
2022-10-10T03:52:49.032Z,5.25
2022-10-10T03:55:19.539Z,5.10
2022-10-10T03:57:48.308Z,4.93
2022-10-10T04:00:17.139Z,5.07
2022-10-10T04:02:45.803Z,4.60
2022-10-10T04:05:14.628Z,5.65
2022-10-10T04:07:43.212Z,5.20
2022-10-10T04:10:11.898Z,5.38
2022-10-10T04:12:42.136Z,5.50
2022-10-10T04:15:12.056Z,6.82
2022-10-10T04:17:40.663Z,10.38
2022-10-10T04:20:09.884Z,12.95
2022-10-10T04:22:38.535Z,12.82
2022-10-10T04:25:07.554Z,14.20
2022-10-10T04:27:36.261Z,13.48
2022-10-10T04:30:07.330Z,13.52
2022-10-10T04:32:36.215Z,13.82
2022-10-10T04:35:05.543Z,15.68
2022-10-10T04:37:35.439Z,18.90
2022-10-10T04:40:04.148Z,18.40
2022-10-10T04:42:32.699Z,22.17
2022-10-10T04:45:01.236Z,25.08
2022-10-10T04:47:32.084Z,26.63
2022-10-10T04:50:00.502Z,30.60
2022-10-10T04:52:29.293Z,22.50
2022-10-10T04:54:57.820Z,22.52
2022-10-10T04:57:26.765Z,21.88
2022-10-10T04:59:55.728Z,17.55
2022-10-10T05:02:24.727Z,17.25
2022-10-10T05:04:55.482Z,14.77
2022-10-10T05:07:24.136Z,13.18
2022-10-10T05:09:52.766Z,12.95
2022-10-10T05:12:21.413Z,10.98
2022-10-10T05:14:51.233Z,9.13
2022-10-10T05:17:19.862Z,11.20
2022-10-10T05:19:49.456Z,9.65
2022-10-10T05:22:19.516Z,11.93
2022-10-10T05:24:48.193Z,13.23
2022-10-10T05:27:16.694Z,11.68
2022-10-10T05:29:46.048Z,9.75
2022-10-10T05:32:14.818Z,10.15
2022-10-10T05:34:43.601Z,8.77
2022-10-10T05:37:12.694Z,7.88
2022-10-10T05:39:42.669Z,6.40
2022-10-10T05:42:11.468Z,6.55
2022-10-10T05:44:40.450Z,5.90
2022-10-10T05:47:09.628Z,5.72
2022-10-10T05:49:39.083Z,5.70
2022-10-10T05:52:07.862Z,6.05
2022-10-10T05:54:36.601Z,6.55
2022-10-10T05:57:06.840Z,6.70
2022-10-10T05:59:35.474Z,6.30
2022-10-10T06:02:04.073Z,7.10
2022-10-10T06:04:32.745Z,6.63
2022-10-10T06:07:01.345Z,7.80
2022-10-10T06:09:30.058Z,7.80
2022-10-10T06:11:58.859Z,7.65
2022-10-10T06:14:29.489Z,6.55
2022-10-10T06:16:58.031Z,8.23
2022-10-10T06:19:26.586Z,7.40
2022-10-10T06:21:55.385Z,7.38
2022-10-10T06:24:24.112Z,7.30
2022-10-10T06:26:52.749Z,6.60
2022-10-10T06:29:21.280Z,7.53
2022-10-10T06:31:51.415Z,6.70
2022-10-10T06:34:20.115Z,7.03
2022-10-10T06:36:50.881Z,6.47
2022-10-10T06:39:19.519Z,10.18
2022-10-10T06:41:50.278Z,9.27
2022-10-10T06:44:20.597Z,7.18
2022-10-10T06:46:50.469Z,7.10
2022-10-10T06:49:19.090Z,6.70
2022-10-10T06:51:47.854Z,6.57
2022-10-10T06:54:17.281Z,6.63
2022-10-10T06:56:46.057Z,7.03
2022-10-10T06:59:14.692Z,7.53
2022-10-10T07:01:43.579Z,7.47
2022-10-10T07:04:14.398Z,6.22
2022-10-10T07:06:43.074Z,5.72
2022-10-10T07:09:11.645Z,5.22
2022-10-10T07:11:45.454Z,5.13
2022-10-10T07:14:15.318Z,5.38
2022-10-10T07:16:43.933Z,5.10
2022-10-10T07:19:14.050Z,5.03
2022-10-10T07:21:44.665Z,4.10
2022-10-10T07:24:13.288Z,4.57
2022-10-10T07:26:41.902Z,5.22
2022-10-10T07:29:10.489Z,5.07
2022-10-10T07:31:39.105Z,4.68
2022-10-10T07:34:08.001Z,4.65
2022-10-10T07:36:38.382Z,4.55
2022-10-10T07:39:07.126Z,4.20
2022-10-10T07:41:35.887Z,3.55
2022-10-10T07:44:04.979Z,4.13
2022-10-10T07:46:33.561Z,3.80
2022-10-10T07:49:02.295Z,4.10
2022-10-10T07:51:31.072Z,3.80
2022-10-10T07:54:01.698Z,4.03
2022-10-10T07:56:30.447Z,4.00
2022-10-10T07:59:00.310Z,4.00
2022-10-10T08:01:28.982Z,3.75
2022-10-10T08:03:58.641Z,3.65
2022-10-10T08:06:27.375Z,3.67
2022-10-10T08:08:55.967Z,3.67
2022-10-10T08:11:25.991Z,4.30
2022-10-10T08:13:54.834Z,3.60
2022-10-10T08:16:24.472Z,3.72
2022-10-10T08:18:54.154Z,3.58
2022-10-10T08:21:23.011Z,3.65
2022-10-10T08:23:51.938Z,3.70
2022-10-10T08:26:21.187Z,3.28
2022-10-10T08:28:51.336Z,3.05
2022-10-10T08:31:22.904Z,3.17
2022-10-10T08:33:53.496Z,2.58
2022-10-10T08:36:24.981Z,2.90
2022-10-10T08:38:59.657Z,2.63
2022-10-10T08:41:41.560Z,2.97
2022-10-10T08:44:20.722Z,3.20
2022-10-10T08:46:53.947Z,3.00
2022-10-10T08:49:28.428Z,2.50
2022-10-10T08:52:03.097Z,2.70
2022-10-10T08:54:34.371Z,2.55
2022-10-10T08:57:06.830Z,2.53
2022-10-10T08:59:41.257Z,2.10
2022-10-10T09:02:53.045Z,2.28
2022-10-10T09:08:26.760Z,2.10
2022-10-10T09:10:59.586Z,2.10
2022-10-10T09:13:36.163Z,2.13
2022-10-10T09:16:15.932Z,2.47
2022-10-10T09:18:55.206Z,2.38
2022-10-10T09:21:27.919Z,1.95
2022-10-10T09:24:04.523Z,2.42
2022-10-10T09:26:40.220Z,2.30
2022-10-10T09:29:25.132Z,2.05
2022-10-10T09:32:00.000Z,1.92
2022-10-10T09:34:36.858Z,1.88
2022-10-10T09:37:16.409Z,1.90
2022-10-10T09:39:59.726Z,2.08
2022-10-10T09:42:35.324Z,2.05
2022-10-10T09:45:05.539Z,1.67
2022-10-10T09:47:35.888Z,2.90
2022-10-10T09:50:05.510Z,1.75
2022-10-10T09:52:35.224Z,2.00
2022-10-10T09:55:16.118Z,2.20
2022-10-10T09:57:44.848Z,2.50
2022-10-10T10:00:37.914Z,2.05
2022-10-10T10:03:16.555Z,1.85
2022-10-10T10:05:54.447Z,1.90
2022-10-10T10:08:29.269Z,1.92
2022-10-10T10:11:02.145Z,2.20
2022-10-10T10:13:34.043Z,2.25
2022-10-10T10:16:08.481Z,2.13
2022-10-10T10:18:43.108Z,1.90
2022-10-10T10:21:23.778Z,2.00
2022-10-10T10:23:55.498Z,1.95
2022-10-10T10:26:27.637Z,2.33
2022-10-10T10:28:59.141Z,1.90
2022-10-10T10:31:53.004Z,1.70
2022-10-10T10:34:47.379Z,1.73
2022-10-10T10:37:22.583Z,1.98
2022-10-10T10:40:29.278Z,2.28
2022-10-10T10:43:34.170Z,1.65
2022-10-10T10:46:12.005Z,1.70
2022-10-10T10:48:46.843Z,1.90
2022-10-10T10:51:44.401Z,1.77
2022-10-10T10:54:40.405Z,1.73
2022-10-10T10:57:32.917Z,1.33
2022-10-10T11:00:22.246Z,1.33
2022-10-10T11:03:35.170Z,1.60
2022-10-10T11:06:14.863Z,1.60
2022-10-10T11:08:59.230Z,1.50
2022-10-10T11:11:47.992Z,2.00
2022-10-10T11:14:29.846Z,1.55
2022-10-10T11:17:05.010Z,2.08
2022-10-10T11:19:38.895Z,1.33
2022-10-10T11:22:14.992Z,1.33
2022-10-10T11:24:52.668Z,1.42
2022-10-10T11:27:27.836Z,1.30
2022-10-10T11:30:04.767Z,1.42
2022-10-10T11:32:40.969Z,1.55
2022-10-10T11:35:20.029Z,1.20
2022-10-10T11:38:07.099Z,1.83
2022-10-10T11:40:54.702Z,1.67
2022-10-10T11:43:33.301Z,1.88
2022-10-10T11:46:10.264Z,1.55
2022-10-10T11:48:49.153Z,1.38
2022-10-10T11:51:37.329Z,1.30
2022-10-10T11:54:14.090Z,1.45
2022-10-10T11:56:52.446Z,1.30
2022-10-10T11:59:32.127Z,1.10
2022-10-10T12:04:41.222Z,1.25
2022-10-10T12:07:18.359Z,1.40
2022-10-10T12:09:54.749Z,1.50
2022-10-10T12:12:34.482Z,1.45
2022-10-10T12:15:06.831Z,1.30
2022-10-10T12:17:45.293Z,1.13
2022-10-10T12:20:34.188Z,1.17
2022-10-10T12:23:24.440Z,1.00
2022-10-10T12:25:53.267Z,0.90
2022-10-10T12:28:30.550Z,1.58
2022-10-10T12:31:35.645Z,1.33
2022-10-10T12:34:40.061Z,1.30
2022-10-10T12:37:22.918Z,1.20
2022-10-10T12:40:30.687Z,1.48
2022-10-10T12:43:08.962Z,1.05
2022-10-10T12:46:26.320Z,0.93
2022-10-10T12:49:21.099Z,0.95
2022-10-10T12:52:05.373Z,1.40
2022-10-10T12:54:41.080Z,1.10
2022-10-10T12:57:18.137Z,0.95
2022-10-10T12:59:47.668Z,1.15
2022-10-10T13:02:21.725Z,1.70
2022-10-10T13:04:54.758Z,2.03
2022-10-10T13:07:24.663Z,1.40
2022-10-10T13:09:56.906Z,3.30
2022-10-10T13:12:28.144Z,2.30
2022-10-10T13:14:59.571Z,1.50
2022-10-10T13:17:30.882Z,1.67
2022-10-10T13:20:02.145Z,1.48
2022-10-10T13:22:32.928Z,1.23
2022-10-10T13:25:11.688Z,1.30
2022-10-10T13:27:41.828Z,1.15
2022-10-10T13:30:26.452Z,1.02
2022-10-10T13:32:57.522Z,1.00
2022-10-10T13:35:29.166Z,0.98
2022-10-10T13:38:01.215Z,1.23
2022-10-10T13:40:30.888Z,1.50
2022-10-10T13:43:00.113Z,1.45
2022-10-10T13:45:37.244Z,1.10
2022-10-10T13:48:18.689Z,1.70
2022-10-10T13:51:14.940Z,3.47
2022-10-10T13:53:48.998Z,11.40
2022-10-10T13:56:24.758Z,10.80
2022-10-10T13:58:55.951Z,8.82
2022-10-10T14:01:34.723Z,12.23
2022-10-10T14:04:15.834Z,68.65
2022-10-10T14:06:57.830Z,47.47
2022-10-10T14:09:32.089Z,23.17
2022-10-10T14:12:03.163Z,17.48
2022-10-10T14:14:36.331Z,11.73
2022-10-10T14:17:06.825Z,12.55
2022-10-10T14:19:35.566Z,7.43
2022-10-10T14:22:05.659Z,5.07
2022-10-10T14:24:34.887Z,4.28
2022-10-10T14:27:13.554Z,5.05
2022-10-10T14:29:42.387Z,4.35
2022-10-10T14:32:11.675Z,4.25
2022-10-10T14:34:40.851Z,3.83
2022-10-10T14:37:18.179Z,4.22
2022-10-10T14:39:47.750Z,2.10
2022-10-10T14:42:22.729Z,2.28
2022-10-10T14:44:51.663Z,2.05
2022-10-10T14:47:22.024Z,2.83
2022-10-10T14:49:52.770Z,1.38
2022-10-10T14:52:23.316Z,2.80
2022-10-10T14:54:51.831Z,1.90
2022-10-10T14:57:22.587Z,1.42
2022-10-10T14:59:51.328Z,1.35
2022-10-10T15:02:21.942Z,1.58
2022-10-10T15:04:53.170Z,1.58
2022-10-10T15:07:23.687Z,1.52
2022-10-10T15:10:19.228Z,1.58
2022-10-10T15:12:43.442Z,1.65
2022-10-10T15:15:13.487Z,1.75
2022-10-10T15:17:42.836Z,1.65
2022-10-10T15:20:13.968Z,2.05
2022-10-10T15:22:48.118Z,1.73
2022-10-10T15:25:19.510Z,1.70
2022-10-10T15:27:51.128Z,1.80
2022-10-10T15:32:51.592Z,1.63
2022-10-10T15:35:23.743Z,2.05
2022-10-10T15:37:55.957Z,2.15
2022-10-10T15:40:25.508Z,1.98
2022-10-10T15:42:54.604Z,2.35
2022-10-10T15:45:51.052Z,3.10
2022-10-10T15:48:12.267Z,4.55
2022-10-10T15:50:43.603Z,7.00
2022-10-10T15:53:14.453Z,9.90
2022-10-10T15:55:44.600Z,12.70
2022-10-10T15:58:13.440Z,12.07
2022-10-10T16:00:43.949Z,12.65
2022-10-10T16:03:18.635Z,12.32
2022-10-10T16:05:48.810Z,12.32
2022-10-10T16:08:19.661Z,11.02
2022-10-10T16:10:48.709Z,9.63
2022-10-10T16:13:17.707Z,9.38
2022-10-10T16:15:46.399Z,8.45
2022-10-10T16:18:15.039Z,7.13
2022-10-10T16:20:44.041Z,6.38
2022-10-10T16:23:12.742Z,5.45
2022-10-10T16:25:43.332Z,5.47
2022-10-10T16:28:11.923Z,5.05
2022-10-10T16:30:41.147Z,5.95
2022-10-10T16:33:09.684Z,5.15
2022-10-10T16:35:38.974Z,5.60
2022-10-10T16:38:07.670Z,4.93
2022-10-10T16:40:37.648Z,4.78
2022-10-10T16:43:07.888Z,4.05
2022-10-10T16:45:41.736Z,3.58
2022-10-10T16:48:10.361Z,3.33
2022-10-10T16:50:42.713Z,3.85
2022-10-10T16:53:12.427Z,3.22
2022-10-10T16:55:43.445Z,3.53
2022-10-10T16:58:13.670Z,3.95
2022-10-10T17:00:44.088Z,3.60
2022-10-10T17:03:13.180Z,4.15
2022-10-10T17:05:46.988Z,4.55
2022-10-10T17:08:18.847Z,4.22
2022-10-10T17:10:47.531Z,4.13
2022-10-10T17:13:17.947Z,5.90
2022-10-10T17:15:47.062Z,4.63
2022-10-10T17:18:17.598Z,4.28
2022-10-10T17:20:46.832Z,4.78
2022-10-10T17:23:17.289Z,5.63
2022-10-10T17:25:47.919Z,5.07
2022-10-10T17:28:18.607Z,5.53
2022-10-10T17:30:50.322Z,5.13
2022-10-10T17:33:20.962Z,5.07
2022-10-10T17:35:51.055Z,5.55
2022-10-10T17:38:38.451Z,5.93
2022-10-10T17:41:11.292Z,5.47
2022-10-10T17:46:36.874Z,4.95
2022-10-10T17:49:07.001Z,4.63
2022-10-10T17:51:37.443Z,4.57
2022-10-10T17:54:10.309Z,4.43
2022-10-10T17:56:40.807Z,4.35
2022-10-10T17:59:11.177Z,4.45
2022-10-10T18:01:41.433Z,4.88
2022-10-10T18:04:10.279Z,4.80
2022-10-10T18:06:39.628Z,4.90
2022-10-10T18:09:08.653Z,4.75
2022-10-10T18:11:37.628Z,5.10
2022-10-10T18:14:06.851Z,5.32
2022-10-10T18:16:37.441Z,5.70
2022-10-10T18:19:07.776Z,6.45
2022-10-10T18:21:37.113Z,7.65
2022-10-10T18:24:06.264Z,7.10
2022-10-10T18:26:35.225Z,7.80
2022-10-10T18:29:06.650Z,7.55
2022-10-10T18:31:38.527Z,7.78
2022-10-10T18:34:08.818Z,7.15
2022-10-10T18:36:38.879Z,7.40
2022-10-10T18:39:09.737Z,7.20
2022-10-10T18:41:39.321Z,5.70
2022-10-10T18:44:10.306Z,5.50
2022-10-10T18:46:41.141Z,5.18
2022-10-10T18:49:11.973Z,4.20
2022-10-10T18:51:43.322Z,5.07
2022-10-10T18:54:14.931Z,4.53
2022-10-10T18:56:45.192Z,4.28
2022-10-10T18:59:15.961Z,4.88
2022-10-10T19:01:47.214Z,4.90
2022-10-10T19:04:17.521Z,3.88
2022-10-10T19:06:46.493Z,5.03
2022-10-10T19:09:18.421Z,5.38
2022-10-10T19:11:50.186Z,5.32
2022-10-10T19:14:19.743Z,4.80
2022-10-10T19:16:53.041Z,5.03
2022-10-10T19:19:21.855Z,5.30
2022-10-10T19:21:51.267Z,5.05
2022-10-10T19:24:21.622Z,4.65
2022-10-10T19:26:53.598Z,5.13
2022-10-10T19:29:25.131Z,4.80
2022-10-10T19:31:56.348Z,5.05
2022-10-10T19:34:25.844Z,5.32
2022-10-10T19:36:57.774Z,4.63
2022-10-10T19:39:26.839Z,5.00
2022-10-10T19:41:55.903Z,4.70
2022-10-10T19:44:24.660Z,4.53
2022-10-10T19:46:56.465Z,4.30
2022-10-10T19:49:25.376Z,4.00
2022-10-10T19:51:54.702Z,4.90
2022-10-10T19:54:23.498Z,4.55
2022-10-10T19:56:52.829Z,5.03
2022-10-10T19:59:21.577Z,4.53
2022-10-10T20:01:53.467Z,4.30
2022-10-10T20:04:23.839Z,4.97
2022-10-10T20:06:52.635Z,3.92
2022-10-10T20:09:21.591Z,4.07
2022-10-10T20:11:50.352Z,4.57
2022-10-10T20:14:19.057Z,5.38
2022-10-10T20:16:47.880Z,3.90
2022-10-10T20:19:16.501Z,4.55
2022-10-10T20:21:46.984Z,3.95
2022-10-10T20:24:16.058Z,4.30
2022-10-10T20:26:44.958Z,4.00
2022-10-10T20:29:15.483Z,4.07
2022-10-10T20:31:44.347Z,5.07
2022-10-10T20:34:13.898Z,3.90
2022-10-10T20:36:43.041Z,3.80
2022-10-10T20:39:15.264Z,5.07
2022-10-10T20:41:44.255Z,3.75
2022-10-10T20:44:14.777Z,4.70
2022-10-10T20:46:45.921Z,3.50
2022-10-10T20:49:16.991Z,3.95
2022-10-10T20:51:48.920Z,4.28
2022-10-10T20:54:20.571Z,3.50
2022-10-10T20:56:50.018Z,4.30
2022-10-10T20:59:19.104Z,4.45
2022-10-10T21:01:47.953Z,4.13
2022-10-10T21:04:17.034Z,4.70
2022-10-10T21:06:46.711Z,4.13
2022-10-10T21:09:16.740Z,4.38
2022-10-10T21:11:50.568Z,3.92
2022-10-10T21:14:19.800Z,4.18
2022-10-10T21:16:50.943Z,3.72
2022-10-10T21:19:20.449Z,4.03
2022-10-10T21:21:49.258Z,4.03
2022-10-10T21:24:18.577Z,3.90
2022-10-10T21:26:50.505Z,3.88
2022-10-10T21:29:23.069Z,3.72
2022-10-10T21:31:51.941Z,4.03
2022-10-10T21:34:20.775Z,4.20
2022-10-10T21:36:50.177Z,3.58
2022-10-10T21:39:19.209Z,3.97
2022-10-10T21:41:49.407Z,3.92
2022-10-10T21:44:18.357Z,4.35
2022-10-10T21:46:46.971Z,5.28
2022-10-10T21:49:15.705Z,3.80
2022-10-10T21:51:46.810Z,3.78
2022-10-10T21:54:16.041Z,3.97
2022-10-10T21:56:45.455Z,3.63
2022-10-10T21:59:17.633Z,4.00
2022-10-10T22:01:46.315Z,3.75
2022-10-10T22:04:15.180Z,3.40
2022-10-10T22:06:44.844Z,3.25
2022-10-10T22:09:13.575Z,3.75
2022-10-10T22:11:42.574Z,4.53
2022-10-10T22:14:11.618Z,4.50
2022-10-10T22:16:41.781Z,3.72
2022-10-10T22:19:11.090Z,4.00
2022-10-10T22:21:40.125Z,3.70
2022-10-10T22:24:09.814Z,3.20
2022-10-10T22:26:38.780Z,3.80
2022-10-10T22:29:07.431Z,3.50
2022-10-10T22:31:37.949Z,3.92
2022-10-10T22:34:09.720Z,3.97
2022-10-10T22:36:38.287Z,3.78
2022-10-10T22:39:09.046Z,3.67
2022-10-10T22:41:38.239Z,4.10
2022-10-10T22:44:06.973Z,3.67
2022-10-10T22:46:35.660Z,3.90
2022-10-10T22:49:04.657Z,4.38
2022-10-10T22:51:34.732Z,3.95
2022-10-10T22:54:03.437Z,3.78
2022-10-10T22:56:32.110Z,3.67
2022-10-10T22:59:00.674Z,4.47
2022-10-10T23:01:29.452Z,4.32
2022-10-10T23:04:00.752Z,4.03
2022-10-10T23:06:29.376Z,4.22
2022-10-10T23:08:59.501Z,3.95
2022-10-10T23:11:28.439Z,4.22
2022-10-10T23:13:57.380Z,4.18
2022-10-10T23:16:25.994Z,5.07
2022-10-10T23:18:54.692Z,5.07
2022-10-10T23:21:23.274Z,5.43
2022-10-10T23:23:52.539Z,5.63
2022-10-10T23:26:22.554Z,4.90
2022-10-10T23:28:52.081Z,5.95
2022-10-10T23:31:20.752Z,5.57
2022-10-10T23:33:49.318Z,5.38
2022-10-10T23:36:18.593Z,5.22
2022-10-10T23:38:47.757Z,4.93
2022-10-10T23:41:16.361Z,4.85
2022-10-10T23:43:46.807Z,4.38
2022-10-10T23:46:16.062Z,4.82
2022-10-10T23:48:44.660Z,4.70
2022-10-10T23:51:13.427Z,4.47
2022-10-10T23:53:41.854Z,5.65
2022-10-10T23:56:10.434Z,5.45
2022-10-10T23:58:39.042Z,4.63
